sensor_id;sensor_type;location;lat;lon;timestamp;P1;durP1;ratioP1;P2;durP2;ratioP2
58768;SDS011;44536;47.474;19.056;2022-08-18T00:01:44;9.38;;;4.85;;
58768;SDS011;44536;47.474;19.056;2022-08-18T00:04:50;7.90;;;4.68;;
58768;SDS011;44536;47.474;19.056;2022-08-18T00:07:56;8.25;;;4.72;;
58768;SDS011;44536;47.474;19.056;2022-08-18T00:10:59;9.40;;;4.72;;
58768;SDS011;44536;47.474;19.056;2022-08-18T00:14:01;10.80;;;5.40;;
58768;SDS011;44536;47.474;19.056;2022-08-18T00:17:04;10.90;;;4.90;;
58768;SDS011;44536;47.474;19.056;2022-08-18T00:20:08;9.75;;;5.00;;
58768;SDS011;44536;47.474;19.056;2022-08-18T00:23:15;8.35;;;4.97;;
58768;SDS011;44536;47.474;19.056;2022-08-18T00:26:19;10.73;;;5.85;;
58768;SDS011;44536;47.474;19.056;2022-08-18T00:29:21;7.70;;;5.47;;
58768;SDS011;44536;47.474;19.056;2022-08-18T00:32:33;8.77;;;4.97;;
58768;SDS011;44536;47.474;19.056;2022-08-18T00:35:38;8.50;;;5.50;;
58768;SDS011;44536;47.474;19.056;2022-08-18T00:38:40;8.60;;;5.17;;
58768;SDS011;44536;47.474;19.056;2022-08-18T00:41:42;8.23;;;4.50;;
58768;SDS011;44536;47.474;19.056;2022-08-18T00:44:45;9.45;;;5.62;;
58768;SDS011;44536;47.474;19.056;2022-08-18T00:47:47;10.40;;;4.97;;
58768;SDS011;44536;47.474;19.056;2022-08-18T00:50:57;7.57;;;4.93;;
58768;SDS011;44536;47.474;19.056;2022-08-18T00:57:16;8.82;;;4.97;;
58768;SDS011;44536;47.474;19.056;2022-08-18T01:00:22;9.35;;;5.82;;
58768;SDS011;44536;47.474;19.056;2022-08-18T01:03:24;9.27;;;5.25;;
58768;SDS011;44536;47.474;19.056;2022-08-18T01:06:38;7.45;;;4.57;;
58768;SDS011;44536;47.474;19.056;2022-08-18T01:09:46;8.93;;;5.15;;
58768;SDS011;44536;47.474;19.056;2022-08-18T01:12:53;10.10;;;5.37;;
58768;SDS011;44536;47.474;19.056;2022-08-18T01:15:58;8.70;;;5.32;;
58768;SDS011;44536;47.474;19.056;2022-08-18T01:19:21;8.97;;;5.47;;
58768;SDS011;44536;47.474;19.056;2022-08-18T01:25:51;9.50;;;4.60;;
58768;SDS011;44536;47.474;19.056;2022-08-18T01:29:06;7.18;;;5.18;;
58768;SDS011;44536;47.474;19.056;2022-08-18T01:32:21;11.43;;;6.00;;
58768;SDS011;44536;47.474;19.056;2022-08-18T01:35:24;10.82;;;5.40;;
58768;SDS011;44536;47.474;19.056;2022-08-18T01:38:28;7.72;;;4.72;;
58768;SDS011;44536;47.474;19.056;2022-08-18T01:41:32;8.55;;;5.53;;
58768;SDS011;44536;47.474;19.056;2022-08-18T01:44:35;11.65;;;6.05;;
58768;SDS011;44536;47.474;19.056;2022-08-18T01:47:37;9.60;;;6.75;;
58768;SDS011;44536;47.474;19.056;2022-08-18T01:50:59;11.85;;;5.65;;
58768;SDS011;44536;47.474;19.056;2022-08-18T01:54:07;11.38;;;7.43;;
58768;SDS011;44536;47.474;19.056;2022-08-18T01:57:13;8.45;;;6.18;;
58768;SDS011;44536;47.474;19.056;2022-08-18T02:00:17;7.95;;;5.30;;
58768;SDS011;44536;47.474;19.056;2022-08-18T02:03:19;10.00;;;5.80;;
58768;SDS011;44536;47.474;19.056;2022-08-18T02:06:22;9.10;;;5.30;;
58768;SDS011;44536;47.474;19.056;2022-08-18T02:09:35;9.23;;;6.03;;
58768;SDS011;44536;47.474;19.056;2022-08-18T02:12:39;9.70;;;6.45;;
58768;SDS011;44536;47.474;19.056;2022-08-18T02:18:45;15.23;;;6.20;;
58768;SDS011;44536;47.474;19.056;2022-08-18T02:21:50;10.30;;;6.72;;
58768;SDS011;44536;47.474;19.056;2022-08-18T02:24:55;11.15;;;6.22;;
58768;SDS011;44536;47.474;19.056;2022-08-18T02:27:58;9.40;;;6.75;;
58768;SDS011;44536;47.474;19.056;2022-08-18T02:31:08;10.48;;;7.25;;
58768;SDS011;44536;47.474;19.056;2022-08-18T02:34:19;11.07;;;6.65;;
58768;SDS011;44536;47.474;19.056;2022-08-18T02:37:21;9.68;;;5.72;;
58768;SDS011;44536;47.474;19.056;2022-08-18T02:40:24;10.60;;;7.20;;
58768;SDS011;44536;47.474;19.056;2022-08-18T02:43:27;10.80;;;6.73;;
58768;SDS011;44536;47.474;19.056;2022-08-18T02:46:30;8.48;;;6.55;;
58768;SDS011;44536;47.474;19.056;2022-08-18T02:49:32;10.45;;;6.55;;
58768;SDS011;44536;47.474;19.056;2022-08-18T02:52:35;9.67;;;6.83;;
58768;SDS011;44536;47.474;19.056;2022-08-18T02:55:39;9.30;;;6.22;;
58768;SDS011;44536;47.474;19.056;2022-08-18T02:58:41;9.43;;;5.53;;
58768;SDS011;44536;47.474;19.056;2022-08-18T03:01:44;9.07;;;5.93;;
58768;SDS011;44536;47.474;19.056;2022-08-18T03:04:48;14.10;;;6.82;;
58768;SDS011;44536;47.474;19.056;2022-08-18T03:07:52;10.93;;;7.10;;
58768;SDS011;44536;47.474;19.056;2022-08-18T03:10:55;13.13;;;6.72;;
58768;SDS011;44536;47.474;19.056;2022-08-18T03:13:57;11.07;;;6.30;;
58768;SDS011;44536;47.474;19.056;2022-08-18T03:16:59;9.53;;;7.40;;
58768;SDS011;44536;47.474;19.056;2022-08-18T03:20:02;13.40;;;7.32;;
58768;SDS011;44536;47.474;19.056;2022-08-18T03:23:05;10.75;;;6.93;;
58768;SDS011;44536;47.474;19.056;2022-08-18T03:26:11;12.98;;;7.43;;
58768;SDS011;44536;47.474;19.056;2022-08-18T03:29:16;12.25;;;7.53;;
58768;SDS011;44536;47.474;19.056;2022-08-18T03:32:18;14.27;;;8.68;;
58768;SDS011;44536;47.474;19.056;2022-08-18T03:35:20;9.30;;;6.60;;
58768;SDS011;44536;47.474;19.056;2022-08-18T03:38:22;9.40;;;6.25;;
58768;SDS011;44536;47.474;19.056;2022-08-18T03:41:25;11.35;;;7.57;;
58768;SDS011;44536;47.474;19.056;2022-08-18T03:44:48;12.93;;;7.53;;
58768;SDS011;44536;47.474;19.056;2022-08-18T03:47:51;13.03;;;8.23;;
58768;SDS011;44536;47.474;19.056;2022-08-18T03:50:54;9.95;;;7.35;;
58768;SDS011;44536;47.474;19.056;2022-08-18T03:53:57;12.48;;;7.65;;
58768;SDS011;44536;47.474;19.056;2022-08-18T03:57:03;10.07;;;7.28;;
58768;SDS011;44536;47.474;19.056;2022-08-18T04:00:08;10.88;;;7.05;;
58768;SDS011;44536;47.474;19.056;2022-08-18T04:03:12;10.73;;;6.07;;
58768;SDS011;44536;47.474;19.056;2022-08-18T04:06:15;11.70;;;7.65;;
58768;SDS011;44536;47.474;19.056;2022-08-18T04:09:32;11.43;;;7.15;;
58768;SDS011;44536;47.474;19.056;2022-08-18T04:12:35;10.27;;;6.22;;
58768;SDS011;44536;47.474;19.056;2022-08-18T04:15:40;11.07;;;7.47;;
58768;SDS011;44536;47.474;19.056;2022-08-18T04:18:42;12.82;;;8.80;;
58768;SDS011;44536;47.474;19.056;2022-08-18T04:21:45;17.87;;;8.88;;
58768;SDS011;44536;47.474;19.056;2022-08-18T04:24:52;11.60;;;7.40;;
58768;SDS011;44536;47.474;19.056;2022-08-18T04:27:55;10.60;;;7.57;;
58768;SDS011;44536;47.474;19.056;2022-08-18T04:31:05;12.13;;;8.90;;
58768;SDS011;44536;47.474;19.056;2022-08-18T04:34:11;12.23;;;7.70;;
58768;SDS011;44536;47.474;19.056;2022-08-18T04:37:15;13.30;;;9.63;;
58768;SDS011;44536;47.474;19.056;2022-08-18T04:43:25;11.20;;;7.50;;
58768;SDS011;44536;47.474;19.056;2022-08-18T04:46:28;9.63;;;7.45;;
58768;SDS011;44536;47.474;19.056;2022-08-18T04:49:31;14.43;;;8.98;;
58768;SDS011;44536;47.474;19.056;2022-08-18T04:52:35;12.25;;;8.25;;
58768;SDS011;44536;47.474;19.056;2022-08-18T04:55:55;11.82;;;7.03;;
58768;SDS011;44536;47.474;19.056;2022-08-18T04:58:59;13.67;;;7.47;;
58768;SDS011;44536;47.474;19.056;2022-08-18T05:02:05;12.40;;;8.90;;
58768;SDS011;44536;47.474;19.056;2022-08-18T05:05:15;11.50;;;7.82;;
58768;SDS011;44536;47.474;19.056;2022-08-18T05:08:17;12.07;;;8.07;;
58768;SDS011;44536;47.474;19.056;2022-08-18T05:11:20;13.10;;;9.20;;
58768;SDS011;44536;47.474;19.056;2022-08-18T05:14:24;13.50;;;8.05;;
58768;SDS011;44536;47.474;19.056;2022-08-18T05:17:26;13.25;;;7.87;;
58768;SDS011;44536;47.474;19.056;2022-08-18T05:20:31;14.15;;;8.85;;
58768;SDS011;44536;47.474;19.056;2022-08-18T05:23:33;13.13;;;9.33;;
58768;SDS011;44536;47.474;19.056;2022-08-18T05:26:36;12.50;;;8.70;;
58768;SDS011;44536;47.474;19.056;2022-08-18T05:29:39;10.97;;;7.67;;
58768;SDS011;44536;47.474;19.056;2022-08-18T05:32:46;12.88;;;8.43;;
58768;SDS011;44536;47.474;19.056;2022-08-18T05:35:53;13.57;;;9.38;;
58768;SDS011;44536;47.474;19.056;2022-08-18T05:39:11;12.68;;;8.18;;
58768;SDS011;44536;47.474;19.056;2022-08-18T05:42:22;11.75;;;8.13;;
58768;SDS011;44536;47.474;19.056;2022-08-18T05:45:26;14.02;;;8.27;;
58768;SDS011;44536;47.474;19.056;2022-08-18T05:48:30;12.27;;;8.05;;
58768;SDS011;44536;47.474;19.056;2022-08-18T05:51:35;12.37;;;8.80;;
58768;SDS011;44536;47.474;19.056;2022-08-18T05:54:53;13.18;;;7.82;;
58768;SDS011;44536;47.474;19.056;2022-08-18T05:58:23;11.88;;;8.13;;
58768;SDS011;44536;47.474;19.056;2022-08-18T06:01:43;11.68;;;6.95;;
58768;SDS011;44536;47.474;19.056;2022-08-18T06:04:53;12.65;;;7.70;;
58768;SDS011;44536;47.474;19.056;2022-08-18T06:07:59;11.23;;;7.53;;
58768;SDS011;44536;47.474;19.056;2022-08-18T06:11:08;13.13;;;8.07;;
58768;SDS011;44536;47.474;19.056;2022-08-18T06:14:23;10.82;;;7.65;;
58768;SDS011;44536;47.474;19.056;2022-08-18T06:17:39;11.75;;;8.70;;
58768;SDS011;44536;47.474;19.056;2022-08-18T06:21:09;9.93;;;7.80;;
58768;SDS011;44536;47.474;19.056;2022-08-18T06:28:13;10.70;;;8.30;;
58768;SDS011;44536;47.474;19.056;2022-08-18T06:31:19;12.15;;;7.97;;
58768;SDS011;44536;47.474;19.056;2022-08-18T06:38:00;9.48;;;6.80;;
58768;SDS011;44536;47.474;19.056;2022-08-18T06:41:38;9.07;;;6.55;;
58768;SDS011;44536;47.474;19.056;2022-08-18T06:44:46;11.38;;;8.20;;
58768;SDS011;44536;47.474;19.056;2022-08-18T06:48:01;15.63;;;8.32;;
58768;SDS011;44536;47.474;19.056;2022-08-18T06:51:18;10.63;;;7.57;;
58768;SDS011;44536;47.474;19.056;2022-08-18T06:54:27;9.50;;;7.05;;
58768;SDS011;44536;47.474;19.056;2022-08-18T06:57:32;10.98;;;7.37;;
58768;SDS011;44536;47.474;19.056;2022-08-18T07:00:35;16.00;;;7.53;;
58768;SDS011;44536;47.474;19.056;2022-08-18T07:03:49;12.13;;;7.47;;
58768;SDS011;44536;47.474;19.056;2022-08-18T07:06:55;10.27;;;7.62;;
58768;SDS011;44536;47.474;19.056;2022-08-18T07:16:30;9.10;;;6.35;;
58768;SDS011;44536;47.474;19.056;2022-08-18T07:19:58;10.00;;;6.85;;
58768;SDS011;44536;47.474;19.056;2022-08-18T07:23:24;9.65;;;7.80;;
58768;SDS011;44536;47.474;19.056;2022-08-18T07:26:29;10.63;;;7.03;;
58768;SDS011;44536;47.474;19.056;2022-08-18T07:29:33;8.73;;;6.40;;
58768;SDS011;44536;47.474;19.056;2022-08-18T07:32:46;11.52;;;7.15;;
58768;SDS011;44536;47.474;19.056;2022-08-18T07:35:59;8.95;;;6.30;;
58768;SDS011;44536;47.474;19.056;2022-08-18T07:39:12;9.18;;;6.62;;
58768;SDS011;44536;47.474;19.056;2022-08-18T07:42:34;9.30;;;6.40;;
58768;SDS011;44536;47.474;19.056;2022-08-18T07:46:04;10.82;;;6.65;;
58768;SDS011;44536;47.474;19.056;2022-08-18T07:49:15;8.40;;;5.75;;
58768;SDS011;44536;47.474;19.056;2022-08-18T07:52:27;9.60;;;7.15;;
58768;SDS011;44536;47.474;19.056;2022-08-18T07:55:49;8.48;;;6.10;;
58768;SDS011;44536;47.474;19.056;2022-08-18T07:59:08;12.45;;;6.80;;
58768;SDS011;44536;47.474;19.056;2022-08-18T08:02:20;8.75;;;5.90;;
58768;SDS011;44536;47.474;19.056;2022-08-18T08:12:11;10.13;;;7.30;;
58768;SDS011;44536;47.474;19.056;2022-08-18T08:16:11;10.02;;;7.18;;
58768;SDS011;44536;47.474;19.056;2022-08-18T08:26:35;13.18;;;5.93;;
58768;SDS011;44536;47.474;19.056;2022-08-18T08:29:53;11.63;;;6.78;;
58768;SDS011;44536;47.474;19.056;2022-08-18T08:33:39;9.93;;;6.60;;
58768;SDS011;44536;47.474;19.056;2022-08-18T08:36:48;12.32;;;7.10;;
58768;SDS011;44536;47.474;19.056;2022-08-18T08:40:05;11.02;;;6.25;;
58768;SDS011;44536;47.474;19.056;2022-08-18T08:43:18;10.25;;;6.60;;
58768;SDS011;44536;47.474;19.056;2022-08-18T08:46:27;10.95;;;6.62;;
58768;SDS011;44536;47.474;19.056;2022-08-18T08:49:34;9.32;;;7.07;;
58768;SDS011;44536;47.474;19.056;2022-08-18T08:52:42;11.80;;;6.32;;
58768;SDS011;44536;47.474;19.056;2022-08-18T08:55:46;9.30;;;5.93;;
58768;SDS011;44536;47.474;19.056;2022-08-18T08:59:04;10.07;;;6.72;;
58768;SDS011;44536;47.474;19.056;2022-08-18T09:03:14;9.93;;;6.57;;
58768;SDS011;44536;47.474;19.056;2022-08-18T09:06:18;10.00;;;7.12;;
58768;SDS011;44536;47.474;19.056;2022-08-18T09:13:26;12.93;;;7.12;;
58768;SDS011;44536;47.474;19.056;2022-08-18T09:23:41;9.98;;;6.00;;
58768;SDS011;44536;47.474;19.056;2022-08-18T09:26:52;7.95;;;5.87;;
58768;SDS011;44536;47.474;19.056;2022-08-18T09:33:59;8.23;;;6.00;;
58768;SDS011;44536;47.474;19.056;2022-08-18T09:40:46;9.57;;;6.72;;
58768;SDS011;44536;47.474;19.056;2022-08-18T09:44:11;20.77;;;8.50;;
58768;SDS011;44536;47.474;19.056;2022-08-18T09:54:10;10.40;;;8.38;;
58768;SDS011;44536;47.474;19.056;2022-08-18T09:57:17;10.77;;;6.32;;
58768;SDS011;44536;47.474;19.056;2022-08-18T10:00:26;7.95;;;5.57;;
58768;SDS011;44536;47.474;19.056;2022-08-18T10:03:35;7.97;;;6.10;;
58768;SDS011;44536;47.474;19.056;2022-08-18T10:06:37;7.60;;;5.78;;
58768;SDS011;44536;47.474;19.056;2022-08-18T10:13:04;8.13;;;5.47;;
58768;SDS011;44536;47.474;19.056;2022-08-18T10:19:59;8.63;;;4.87;;
58768;SDS011;44536;47.474;19.056;2022-08-18T10:23:07;6.75;;;4.50;;
58768;SDS011;44536;47.474;19.056;2022-08-18T10:29:45;8.52;;;5.07;;
58768;SDS011;44536;47.474;19.056;2022-08-18T10:32:49;8.15;;;5.22;;
58768;SDS011;44536;47.474;19.056;2022-08-18T10:35:57;6.90;;;4.72;;
58768;SDS011;44536;47.474;19.056;2022-08-18T10:39:03;9.93;;;6.15;;
58768;SDS011;44536;47.474;19.056;2022-08-18T10:45:28;6.62;;;4.43;;
58768;SDS011;44536;47.474;19.056;2022-08-18T10:48:35;9.73;;;4.53;;
58768;SDS011;44536;47.474;19.056;2022-08-18T10:51:51;7.78;;;4.95;;
58768;SDS011;44536;47.474;19.056;2022-08-18T11:04:46;8.52;;;5.03;;
58768;SDS011;44536;47.474;19.056;2022-08-18T11:08:13;6.62;;;4.22;;
58768;SDS011;44536;47.474;19.056;2022-08-18T11:11:22;7.47;;;4.57;;
58768;SDS011;44536;47.474;19.056;2022-08-18T11:14:44;7.50;;;5.00;;
58768;SDS011;44536;47.474;19.056;2022-08-18T11:18:00;8.77;;;5.07;;
58768;SDS011;44536;47.474;19.056;2022-08-18T11:24:33;6.05;;;4.37;;
58768;SDS011;44536;47.474;19.056;2022-08-18T11:27:38;6.95;;;4.07;;
58768;SDS011;44536;47.474;19.056;2022-08-18T11:30:50;8.20;;;5.10;;
58768;SDS011;44536;47.474;19.056;2022-08-18T11:33:54;8.00;;;5.00;;
58768;SDS011;44536;47.474;19.056;2022-08-18T11:36:59;7.55;;;4.07;;
58768;SDS011;44536;47.474;19.056;2022-08-18T11:43:41;7.28;;;5.45;;
58768;SDS011;44536;47.474;19.056;2022-08-18T11:47:11;7.00;;;4.65;;
58768;SDS011;44536;47.474;19.056;2022-08-18T11:50:26;8.40;;;5.00;;
58768;SDS011;44536;47.474;19.056;2022-08-18T11:53:39;7.15;;;4.30;;
58768;SDS011;44536;47.474;19.056;2022-08-18T12:00:34;9.75;;;4.68;;
58768;SDS011;44536;47.474;19.056;2022-08-18T12:03:49;6.30;;;4.20;;
58768;SDS011;44536;47.474;19.056;2022-08-18T12:06:58;5.53;;;3.28;;
58768;SDS011;44536;47.474;19.056;2022-08-18T12:10:26;7.60;;;3.50;;
58768;SDS011;44536;47.474;19.056;2022-08-18T12:13:30;6.85;;;3.83;;
58768;SDS011;44536;47.474;19.056;2022-08-18T12:19:47;7.07;;;3.92;;
58768;SDS011;44536;47.474;19.056;2022-08-18T12:22:54;5.82;;;3.60;;
58768;SDS011;44536;47.474;19.056;2022-08-18T12:25:58;5.95;;;4.10;;
58768;SDS011;44536;47.474;19.056;2022-08-18T12:29:00;6.72;;;4.28;;
58768;SDS011;44536;47.474;19.056;2022-08-18T12:32:03;8.52;;;4.47;;
58768;SDS011;44536;47.474;19.056;2022-08-18T12:35:18;7.37;;;5.05;;
58768;SDS011;44536;47.474;19.056;2022-08-18T12:38:23;6.97;;;4.07;;
58768;SDS011;44536;47.474;19.056;2022-08-18T12:41:25;11.70;;;4.55;;
58768;SDS011;44536;47.474;19.056;2022-08-18T12:44:31;8.98;;;4.20;;
58768;SDS011;44536;47.474;19.056;2022-08-18T12:47:35;7.60;;;3.65;;
58768;SDS011;44536;47.474;19.056;2022-08-18T12:50:43;8.38;;;4.00;;
58768;SDS011;44536;47.474;19.056;2022-08-18T12:53:59;8.77;;;3.97;;
58768;SDS011;44536;47.474;19.056;2022-08-18T12:57:03;9.65;;;4.47;;
58768;SDS011;44536;47.474;19.056;2022-08-18T13:00:11;7.55;;;5.25;;
58768;SDS011;44536;47.474;19.056;2022-08-18T13:03:19;7.40;;;4.50;;
58768;SDS011;44536;47.474;19.056;2022-08-18T13:06:22;8.80;;;4.53;;
58768;SDS011;44536;47.474;19.056;2022-08-18T13:09:31;7.10;;;4.65;;
58768;SDS011;44536;47.474;19.056;2022-08-18T13:12:55;6.47;;;4.22;;
58768;SDS011;44536;47.474;19.056;2022-08-18T13:15:57;7.25;;;5.68;;
58768;SDS011;44536;47.474;19.056;2022-08-18T13:19:05;6.35;;;3.80;;
58768;SDS011;44536;47.474;19.056;2022-08-18T13:22:11;8.65;;;5.93;;
58768;SDS011;44536;47.474;19.056;2022-08-18T13:25:14;11.32;;;4.65;;
58768;SDS011;44536;47.474;19.056;2022-08-18T13:28:37;8.15;;;4.55;;
58768;SDS011;44536;47.474;19.056;2022-08-18T13:31:59;6.97;;;3.90;;
58768;SDS011;44536;47.474;19.056;2022-08-18T13:35:02;6.65;;;3.67;;
58768;SDS011;44536;47.474;19.056;2022-08-18T13:38:16;6.60;;;4.20;;
58768;SDS011;44536;47.474;19.056;2022-08-18T13:41:26;8.05;;;4.18;;
58768;SDS011;44536;47.474;19.056;2022-08-18T13:44:28;6.95;;;3.67;;
58768;SDS011;44536;47.474;19.056;2022-08-18T13:47:32;7.95;;;4.57;;
58768;SDS011;44536;47.474;19.056;2022-08-18T13:50:39;7.68;;;4.18;;
58768;SDS011;44536;47.474;19.056;2022-08-18T13:53:42;6.30;;;4.00;;
58768;SDS011;44536;47.474;19.056;2022-08-18T13:57:00;7.25;;;4.12;;
58768;SDS011;44536;47.474;19.056;2022-08-18T14:00:05;7.15;;;4.43;;
58768;SDS011;44536;47.474;19.056;2022-08-18T14:03:22;7.30;;;4.78;;
58768;SDS011;44536;47.474;19.056;2022-08-18T14:06:43;8.63;;;4.12;;
58768;SDS011;44536;47.474;19.056;2022-08-18T14:09:56;8.70;;;4.03;;
58768;SDS011;44536;47.474;19.056;2022-08-18T14:12:59;9.70;;;4.78;;
58768;SDS011;44536;47.474;19.056;2022-08-18T14:16:22;9.70;;;5.22;;
58768;SDS011;44536;47.474;19.056;2022-08-18T14:19:28;6.10;;;4.37;;
58768;SDS011;44536;47.474;19.056;2022-08-18T14:22:50;8.30;;;5.25;;
58768;SDS011;44536;47.474;19.056;2022-08-18T14:26:13;7.78;;;4.57;;
58768;SDS011;44536;47.474;19.056;2022-08-18T14:29:34;11.10;;;4.35;;
58768;SDS011;44536;47.474;19.056;2022-08-18T14:32:48;10.10;;;5.00;;
58768;SDS011;44536;47.474;19.056;2022-08-18T14:35:52;6.97;;;4.10;;
58768;SDS011;44536;47.474;19.056;2022-08-18T14:39:10;8.35;;;4.47;;
58768;SDS011;44536;47.474;19.056;2022-08-18T14:42:13;9.05;;;4.68;;
58768;SDS011;44536;47.474;19.056;2022-08-18T14:45:17;6.82;;;4.37;;
58768;SDS011;44536;47.474;19.056;2022-08-18T14:48:33;12.10;;;5.07;;
58768;SDS011;44536;47.474;19.056;2022-08-18T14:51:37;7.85;;;4.43;;
58768;SDS011;44536;47.474;19.056;2022-08-18T14:54:44;7.32;;;4.28;;
58768;SDS011;44536;47.474;19.056;2022-08-18T14:57:51;12.10;;;4.07;;
58768;SDS011;44536;47.474;19.056;2022-08-18T15:00:57;11.32;;;5.15;;
58768;SDS011;44536;47.474;19.056;2022-08-18T15:04:11;6.53;;;3.60;;
58768;SDS011;44536;47.474;19.056;2022-08-18T15:07:20;16.73;;;4.20;;
58768;SDS011;44536;47.474;19.056;2022-08-18T15:10:25;8.40;;;4.10;;
58768;SDS011;44536;47.474;19.056;2022-08-18T15:13:29;6.70;;;3.53;;
58768;SDS011;44536;47.474;19.056;2022-08-18T15:16:33;12.45;;;5.55;;
58768;SDS011;44536;47.474;19.056;2022-08-18T15:19:39;6.65;;;3.45;;
58768;SDS011;44536;47.474;19.056;2022-08-18T15:23:02;5.12;;;2.78;;
58768;SDS011;44536;47.474;19.056;2022-08-18T15:26:29;6.57;;;2.90;;
58768;SDS011;44536;47.474;19.056;2022-08-18T15:29:35;8.20;;;2.95;;
58768;SDS011;44536;47.474;19.056;2022-08-18T15:32:43;5.65;;;3.00;;
58768;SDS011;44536;47.474;19.056;2022-08-18T15:35:47;4.90;;;2.65;;
58768;SDS011;44536;47.474;19.056;2022-08-18T15:38:52;5.72;;;2.97;;
58768;SDS011;44536;47.474;19.056;2022-08-18T15:41:55;6.35;;;3.00;;
58768;SDS011;44536;47.474;19.056;2022-08-18T15:44:59;8.82;;;3.08;;
58768;SDS011;44536;47.474;19.056;2022-08-18T15:48:13;8.15;;;4.60;;
58768;SDS011;44536;47.474;19.056;2022-08-18T15:51:16;6.53;;;3.65;;
58768;SDS011;44536;47.474;19.056;2022-08-18T15:54:20;6.47;;;3.20;;
58768;SDS011;44536;47.474;19.056;2022-08-18T15:57:26;6.30;;;3.10;;
58768;SDS011;44536;47.474;19.056;2022-08-18T16:00:42;6.20;;;3.00;;
58768;SDS011;44536;47.474;19.056;2022-08-18T16:03:47;7.22;;;3.10;;
58768;SDS011;44536;47.474;19.056;2022-08-18T16:06:52;8.35;;;3.95;;
58768;SDS011;44536;47.474;19.056;2022-08-18T16:09:57;8.35;;;3.50;;
58768;SDS011;44536;47.474;19.056;2022-08-18T16:12:59;9.32;;;3.33;;
58768;SDS011;44536;47.474;19.056;2022-08-18T16:16:20;9.00;;;3.45;;
58768;SDS011;44536;47.474;19.056;2022-08-18T16:19:37;8.25;;;2.78;;
58768;SDS011;44536;47.474;19.056;2022-08-18T16:22:39;7.82;;;3.62;;
58768;SDS011;44536;47.474;19.056;2022-08-18T16:28:46;10.15;;;3.40;;
58768;SDS011;44536;47.474;19.056;2022-08-18T16:31:53;7.35;;;3.05;;
58768;SDS011;44536;47.474;19.056;2022-08-18T16:38:02;5.85;;;2.87;;
58768;SDS011;44536;47.474;19.056;2022-08-18T16:41:11;7.97;;;2.67;;
58768;SDS011;44536;47.474;19.056;2022-08-18T16:44:15;6.00;;;3.37;;
58768;SDS011;44536;47.474;19.056;2022-08-18T16:47:18;9.98;;;3.28;;
58768;SDS011;44536;47.474;19.056;2022-08-18T16:50:20;6.93;;;3.28;;
58768;SDS011;44536;47.474;19.056;2022-08-18T16:53:24;7.05;;;4.22;;
58768;SDS011;44536;47.474;19.056;2022-08-18T16:56:40;8.57;;;2.95;;
58768;SDS011;44536;47.474;19.056;2022-08-18T16:59:43;5.35;;;3.35;;
58768;SDS011;44536;47.474;19.056;2022-08-18T17:03:04;4.22;;;2.60;;
58768;SDS011;44536;47.474;19.056;2022-08-18T17:06:26;5.82;;;2.92;;
58768;SDS011;44536;47.474;19.056;2022-08-18T17:09:29;6.80;;;2.95;;
58768;SDS011;44536;47.474;19.056;2022-08-18T17:12:34;7.55;;;3.28;;
58768;SDS011;44536;47.474;19.056;2022-08-18T17:15:36;8.73;;;3.40;;
58768;SDS011;44536;47.474;19.056;2022-08-18T17:18:39;8.07;;;3.40;;
58768;SDS011;44536;47.474;19.056;2022-08-18T17:21:41;7.62;;;2.87;;
58768;SDS011;44536;47.474;19.056;2022-08-18T17:24:44;5.78;;;3.08;;
58768;SDS011;44536;47.474;19.056;2022-08-18T17:27:50;7.07;;;3.10;;
58768;SDS011;44536;47.474;19.056;2022-08-18T17:30:54;9.23;;;3.83;;
58768;SDS011;44536;47.474;19.056;2022-08-18T17:34:01;8.40;;;3.20;;
58768;SDS011;44536;47.474;19.056;2022-08-18T17:37:08;8.05;;;2.95;;
58768;SDS011;44536;47.474;19.056;2022-08-18T17:40:15;8.48;;;4.30;;
58768;SDS011;44536;47.474;19.056;2022-08-18T17:43:24;5.50;;;3.28;;
58768;SDS011;44536;47.474;19.056;2022-08-18T17:46:31;6.05;;;3.67;;
58768;SDS011;44536;47.474;19.056;2022-08-18T17:49:41;6.25;;;3.33;;
58768;SDS011;44536;47.474;19.056;2022-08-18T17:53:24;7.10;;;4.20;;
58768;SDS011;44536;47.474;19.056;2022-08-18T17:59:49;6.05;;;3.08;;
58768;SDS011;44536;47.474;19.056;2022-08-18T18:02:59;8.80;;;3.30;;
58768;SDS011;44536;47.474;19.056;2022-08-18T18:06:10;8.10;;;4.12;;
58768;SDS011;44536;47.474;19.056;2022-08-18T18:09:36;7.50;;;3.83;;
58768;SDS011;44536;47.474;19.056;2022-08-18T18:12:37;7.57;;;3.47;;
58768;SDS011;44536;47.474;19.056;2022-08-18T18:15:41;6.20;;;3.42;;
58768;SDS011;44536;47.474;19.056;2022-08-18T18:18:52;8.02;;;4.03;;
58768;SDS011;44536;47.474;19.056;2022-08-18T18:22:06;7.55;;;4.30;;
58768;SDS011;44536;47.474;19.056;2022-08-18T18:25:13;8.90;;;3.47;;
58768;SDS011;44536;47.474;19.056;2022-08-18T18:28:35;8.38;;;4.47;;
58768;SDS011;44536;47.474;19.056;2022-08-18T18:35:18;6.00;;;3.40;;
58768;SDS011;44536;47.474;19.056;2022-08-18T18:38:30;8.43;;;4.20;;
58768;SDS011;44536;47.474;19.056;2022-08-18T18:41:37;7.00;;;4.32;;
58768;SDS011;44536;47.474;19.056;2022-08-18T18:44:52;10.38;;;3.85;;
58768;SDS011;44536;47.474;19.056;2022-08-18T18:51:37;7.62;;;3.78;;
58768;SDS011;44536;47.474;19.056;2022-08-18T19:01:38;8.52;;;4.20;;
58768;SDS011;44536;47.474;19.056;2022-08-18T19:04:44;8.25;;;4.87;;
58768;SDS011;44536;47.474;19.056;2022-08-18T19:14:58;7.05;;;4.37;;
58768;SDS011;44536;47.474;19.056;2022-08-18T19:18:25;9.38;;;5.55;;
58768;SDS011;44536;47.474;19.056;2022-08-18T19:21:31;9.35;;;5.93;;
58768;SDS011;44536;47.474;19.056;2022-08-18T19:28:29;9.57;;;5.72;;
58768;SDS011;44536;47.474;19.056;2022-08-18T19:32:04;9.15;;;6.05;;
58768;SDS011;44536;47.474;19.056;2022-08-18T19:35:18;8.93;;;5.12;;
58768;SDS011;44536;47.474;19.056;2022-08-18T19:38:40;10.32;;;7.43;;
58768;SDS011;44536;47.474;19.056;2022-08-18T19:45:23;9.82;;;6.18;;
58768;SDS011;44536;47.474;19.056;2022-08-18T19:48:28;11.90;;;7.57;;
58768;SDS011;44536;47.474;19.056;2022-08-18T19:51:40;9.23;;;6.10;;
58768;SDS011;44536;47.474;19.056;2022-08-18T19:59:06;10.35;;;6.03;;
58768;SDS011;44536;47.474;19.056;2022-08-18T20:09:15;8.40;;;5.40;;
58768;SDS011;44536;47.474;19.056;2022-08-18T20:15:31;9.32;;;5.62;;
58768;SDS011;44536;47.474;19.056;2022-08-18T20:18:36;26.83;;;8.20;;
58768;SDS011;44536;47.474;19.056;2022-08-18T20:21:45;10.18;;;6.05;;
58768;SDS011;44536;47.474;19.056;2022-08-18T20:24:56;10.15;;;5.57;;
58768;SDS011;44536;47.474;19.056;2022-08-18T20:31:12;8.98;;;5.90;;
58768;SDS011;44536;47.474;19.056;2022-08-18T20:34:17;10.13;;;6.30;;
58768;SDS011;44536;47.474;19.056;2022-08-18T20:37:23;9.77;;;5.60;;
58768;SDS011;44536;47.474;19.056;2022-08-18T20:40:35;8.52;;;5.87;;
58768;SDS011;44536;47.474;19.056;2022-08-18T20:43:53;9.05;;;6.18;;
58768;SDS011;44536;47.474;19.056;2022-08-18T20:54:24;9.85;;;5.72;;
58768;SDS011;44536;47.474;19.056;2022-08-18T20:57:52;8.77;;;6.12;;
58768;SDS011;44536;47.474;19.056;2022-08-18T21:00:56;12.77;;;6.20;;
58768;SDS011;44536;47.474;19.056;2022-08-18T21:04:00;10.75;;;6.57;;
58768;SDS011;44536;47.474;19.056;2022-08-18T21:07:02;8.90;;;5.95;;
58768;SDS011;44536;47.474;19.056;2022-08-18T21:10:18;8.90;;;6.28;;
58768;SDS011;44536;47.474;19.056;2022-08-18T21:13:27;8.70;;;6.78;;
58768;SDS011;44536;47.474;19.056;2022-08-18T21:16:32;9.90;;;6.15;;
58768;SDS011;44536;47.474;19.056;2022-08-18T21:19:44;8.93;;;6.57;;
58768;SDS011;44536;47.474;19.056;2022-08-18T21:25:51;9.35;;;5.95;;
58768;SDS011;44536;47.474;19.056;2022-08-18T21:29:01;8.95;;;6.57;;